Albion, New York
Current Conditions -  °F | °C
As of 3:54 AM on Friday 24 Oct 2014 (Local Time) from KROC Reporting Station
Overcast Overcast  
Wind Chill: 51°   Ceiling: 4000
Heat Index: 51°   Visibility: 10mi
Dew Point: 44°   Wind: 9mph
Humidity: 77%   Direction: 300°WNW
Pressure: 29.98"   Gusts: NA
Location:  43.25°N, 78.19°W
Report Text: KROC 240754Z 30008KT 10SM BKN040 OVC060 11/07 A2998 RMK AO2 SLP157 T01060067
Loading
Personal Weather Stations






























Interactive Weather Map
Tropical Storm Tracking
New forecast layout! Learn more

10-Day Weather Forecast

Advertisements
Track Severe Weather on mobile